createdAt,value
2023-05-02T00:00:51.269Z,1013.02
2023-05-02T00:01:51.332Z,1013.02
2023-05-02T00:02:51.487Z,1013.08
2023-05-02T00:03:51.431Z,1013.10
2023-05-02T00:04:51.386Z,1013.03
2023-05-02T00:05:51.386Z,1013.02
2023-05-02T00:06:51.628Z,1013.00
2023-05-02T00:07:51.451Z,1013.00
2023-05-02T00:08:51.477Z,1012.95
2023-05-02T00:09:51.494Z,1012.98
2023-05-02T00:10:51.547Z,1013.02
2023-05-02T00:11:51.587Z,1012.97
2023-05-02T00:12:51.585Z,1012.98
2023-05-02T00:13:51.604Z,1013.00
2023-05-02T00:14:51.631Z,1013.01
2023-05-02T00:15:51.664Z,1013.00
2023-05-02T00:16:51.733Z,1012.98
2023-05-02T00:17:51.738Z,1012.94
2023-05-02T00:18:51.735Z,1012.97
2023-05-02T00:19:51.771Z,1012.96
2023-05-02T00:20:51.814Z,1012.98
2023-05-02T00:21:51.818Z,1012.97
2023-05-02T00:22:51.845Z,1013.01
2023-05-02T00:23:51.869Z,1013.02
2023-05-02T00:24:51.902Z,1013.02
2023-05-02T00:25:51.924Z,1013.07
2023-05-02T00:26:51.973Z,1013.07
2023-05-02T00:27:51.984Z,1013.10
2023-05-02T00:28:52.005Z,1013.11
2023-05-02T00:29:52.040Z,1013.08
2023-05-02T00:30:52.229Z,1013.10
2023-05-02T00:31:52.091Z,1013.16
2023-05-02T00:32:52.157Z,1013.14
2023-05-02T00:33:52.139Z,1013.17
2023-05-02T00:34:52.165Z,1013.13
2023-05-02T00:35:52.195Z,1013.12
2023-05-02T00:36:52.234Z,1013.15
2023-05-02T00:37:52.245Z,1013.15
2023-05-02T00:38:52.276Z,1013.22
2023-05-02T00:39:52.299Z,1013.23
2023-05-02T00:40:52.337Z,1013.19
2023-05-02T00:41:52.349Z,1013.22
2023-05-02T00:42:52.376Z,1013.19
2023-05-02T00:43:52.406Z,1013.24
2023-05-02T00:44:52.430Z,1013.18
2023-05-02T00:45:52.469Z,1013.25
2023-05-02T00:46:52.650Z,1013.21
2023-05-02T00:47:52.552Z,1013.23
2023-05-02T00:48:52.537Z,1013.27
2023-05-02T00:49:52.572Z,1013.24
2023-05-02T00:50:52.589Z,1013.30
2023-05-02T00:51:52.626Z,1013.28
2023-05-02T00:52:52.667Z,1013.33
2023-05-02T00:53:52.677Z,1013.36
2023-05-02T00:54:52.700Z,1013.42
2023-05-02T00:55:52.726Z,1013.43
2023-05-02T00:56:52.751Z,1013.43
2023-05-02T00:57:52.780Z,1013.45
2023-05-02T00:58:52.802Z,1013.48
2023-05-02T00:59:52.831Z,1013.48
2023-05-02T01:00:52.855Z,1013.44
2023-05-02T01:01:52.903Z,1013.46
2023-05-02T01:02:52.951Z,1013.43
2023-05-02T01:03:53.158Z,1013.42
2023-05-02T01:04:52.961Z,1013.45
2023-05-02T01:05:52.988Z,1013.43
2023-05-02T01:06:53.043Z,1013.43
2023-05-02T01:07:53.043Z,1013.53
2023-05-02T01:08:53.093Z,1013.47
2023-05-02T01:09:53.094Z,1013.48
2023-05-02T01:10:53.147Z,1013.48
2023-05-02T01:11:53.145Z,1013.53
2023-05-02T01:12:53.170Z,1013.52
2023-05-02T01:13:53.198Z,1013.55
2023-05-02T01:14:53.224Z,1013.53
2023-05-02T01:15:53.336Z,1013.58
2023-05-02T01:16:53.276Z,1013.52
2023-05-02T01:17:53.332Z,1013.54
2023-05-02T01:18:53.329Z,1013.57
2023-05-02T01:19:53.357Z,1013.59
2023-05-02T01:20:53.381Z,1013.56
2023-05-02T01:21:53.407Z,1013.64
2023-05-02T01:22:53.435Z,1013.60
2023-05-02T01:23:53.476Z,1013.61
2023-05-02T01:24:53.504Z,1013.67
2023-05-02T01:25:53.516Z,1013.64
2023-05-02T01:26:53.544Z,1013.64
2023-05-02T01:27:53.576Z,1013.66
2023-05-02T01:28:53.617Z,1013.61
2023-05-02T01:29:53.623Z,1013.70
2023-05-02T01:30:53.646Z,1013.69
2023-05-02T01:31:53.726Z,1013.62
2023-05-02T01:32:53.762Z,1013.60
2023-05-02T01:33:53.728Z,1013.68
2023-05-02T01:34:53.751Z,1013.64
2023-05-02T01:35:53.780Z,1013.68
2023-05-02T01:36:53.806Z,1013.69
2023-05-02T01:37:53.834Z,1013.71
2023-05-02T01:38:53.860Z,1013.80
2023-05-02T01:39:53.888Z,1013.74
2023-05-02T01:40:53.946Z,1013.86
2023-05-02T01:41:53.941Z,1013.84
2023-05-02T01:42:53.969Z,1013.81
2023-05-02T01:43:54.046Z,1013.82
2023-05-02T01:44:54.020Z,1013.84
2023-05-02T01:45:54.049Z,1013.89
2023-05-02T01:46:54.091Z,1013.86
2023-05-02T01:47:54.148Z,1013.88
2023-05-02T01:48:54.129Z,1013.85
2023-05-02T01:49:54.155Z,1013.86
2023-05-02T01:50:54.186Z,1013.86
2023-05-02T01:51:54.208Z,1013.85
2023-05-02T01:52:54.232Z,1013.89
2023-05-02T01:53:54.275Z,1013.91
2023-05-02T01:54:54.285Z,1013.92
2023-05-02T01:55:54.317Z,1013.90
2023-05-02T01:56:54.358Z,1013.89
2023-05-02T01:57:54.400Z,1013.87
2023-05-02T01:58:54.394Z,1013.82
2023-05-02T01:59:54.423Z,1013.88
2023-05-02T02:00:54.490Z,1013.93
2023-05-02T02:01:54.472Z,1013.97
2023-05-02T02:02:54.521Z,1013.94
2023-05-02T02:03:54.571Z,1013.93
2023-05-02T02:04:54.555Z,1013.95
2023-05-02T02:05:54.579Z,1013.99
2023-05-02T02:06:54.698Z,1013.99
2023-05-02T02:07:54.634Z,1014.03
2023-05-02T02:08:54.657Z,1014.06
2023-05-02T02:09:54.696Z,1014.05
2023-05-02T02:10:54.710Z,1014.07
2023-05-02T02:11:54.736Z,1014.07
2023-05-02T02:12:54.786Z,1014.13
2023-05-02T02:13:54.789Z,1014.13
2023-05-02T02:14:54.817Z,1014.14
2023-05-02T02:15:54.839Z,1014.17
2023-05-02T02:16:54.919Z,1014.20
2023-05-02T02:17:54.955Z,1014.17
2023-05-02T02:18:54.922Z,1014.26
2023-05-02T02:19:54.951Z,1014.23
2023-05-02T02:20:54.979Z,1014.25
2023-05-02T02:21:55.004Z,1014.25
2023-05-02T02:22:55.024Z,1014.22
2023-05-02T02:23:55.053Z,1014.25
2023-05-02T02:24:55.083Z,1014.24
2023-05-02T02:25:55.106Z,1014.24
2023-05-02T02:26:55.129Z,1014.23
2023-05-02T02:27:55.158Z,1014.28
2023-05-02T02:28:55.198Z,1014.23
2023-05-02T02:29:55.213Z,1014.24
2023-05-02T02:30:55.288Z,1014.30
2023-05-02T02:31:55.302Z,1014.30
2023-05-02T02:32:55.329Z,1014.29
2023-05-02T02:33:55.321Z,1014.28
2023-05-02T02:34:55.361Z,1014.27
2023-05-02T02:35:55.367Z,1014.29
2023-05-02T02:36:55.390Z,1014.35
2023-05-02T02:37:55.426Z,1014.37
2023-05-02T02:38:55.451Z,1014.33
2023-05-02T02:39:55.475Z,1014.38
2023-05-02T02:40:55.497Z,1014.36
2023-05-02T02:41:55.522Z,1014.37
2023-05-02T02:42:55.550Z,1014.43
2023-05-02T02:43:55.579Z,1014.39
2023-05-02T02:44:55.755Z,1014.37
2023-05-02T02:45:55.665Z,1014.44
2023-05-02T02:46:55.654Z,1014.42
2023-05-02T02:47:55.718Z,1014.40
2023-05-02T02:48:55.710Z,1014.43
2023-05-02T02:49:55.738Z,1014.46
2023-05-02T02:50:55.759Z,1014.48
2023-05-02T02:51:55.786Z,1014.49
2023-05-02T02:52:55.834Z,1014.52
2023-05-02T02:53:55.837Z,1014.51
2023-05-02T02:54:55.866Z,1014.48
2023-05-02T02:55:55.900Z,1014.53
2023-05-02T02:56:55.916Z,1014.50
2023-05-02T02:57:55.954Z,1014.51
2023-05-02T02:58:55.968Z,1014.52
2023-05-02T02:59:55.997Z,1014.50
2023-05-02T03:00:56.045Z,1014.53
2023-05-02T03:01:56.076Z,1014.54
2023-05-02T03:02:56.148Z,1014.49
2023-05-02T03:03:56.137Z,1014.52
2023-05-02T03:04:56.144Z,1014.57
2023-05-02T03:05:56.152Z,1014.55
2023-05-02T03:06:56.284Z,1014.52
2023-05-02T03:07:56.212Z,1014.56
2023-05-02T03:08:56.231Z,1014.64
2023-05-02T03:09:56.267Z,1014.68
2023-05-02T03:10:56.291Z,1014.68
2023-05-02T03:11:56.312Z,1014.69
2023-05-02T03:12:56.337Z,1014.70
2023-05-02T03:13:56.364Z,1014.69
2023-05-02T03:14:56.390Z,1014.66
2023-05-02T03:15:56.439Z,1014.68
2023-05-02T03:16:56.468Z,1014.69
2023-05-02T03:17:56.501Z,1014.67
2023-05-02T03:18:56.494Z,1014.67
2023-05-02T03:19:56.523Z,1014.65
2023-05-02T03:20:56.547Z,1014.71
2023-05-02T03:21:56.586Z,1014.71
2023-05-02T03:22:56.607Z,1014.72
2023-05-02T03:23:56.639Z,1014.72
2023-05-02T03:24:56.762Z,1014.71
2023-05-02T03:25:56.686Z,1014.73
2023-05-02T03:26:56.708Z,1014.71
2023-05-02T03:27:56.739Z,1014.74
2023-05-02T03:28:56.760Z,1014.76
2023-05-02T03:29:56.952Z,1014.72
2023-05-02T03:30:56.818Z,1014.76
2023-05-02T03:31:56.851Z,1014.70
2023-05-02T03:32:57.143Z,1014.74
2023-05-02T03:33:56.894Z,1014.76
2023-05-02T03:34:56.922Z,1014.73
2023-05-02T03:35:56.952Z,1014.71
2023-05-02T03:36:56.977Z,1014.76
2023-05-02T03:37:57.011Z,1014.78
2023-05-02T03:38:57.033Z,1014.77
2023-05-02T03:39:57.065Z,1014.75
2023-05-02T03:40:57.080Z,1014.81
2023-05-02T03:41:57.112Z,1014.79
2023-05-02T03:42:57.140Z,1014.78
2023-05-02T03:43:57.166Z,1014.79
2023-05-02T03:44:57.185Z,1014.78
2023-05-02T03:45:57.214Z,1014.82
2023-05-02T03:46:57.271Z,1014.83
2023-05-02T03:47:57.291Z,1014.84
2023-05-02T03:48:57.309Z,1014.86
2023-05-02T03:49:57.435Z,1014.83
2023-05-02T03:50:57.358Z,1014.90
2023-05-02T03:51:57.379Z,1014.85
2023-05-02T03:52:57.400Z,1014.89
2023-05-02T03:53:57.426Z,1014.93
2023-05-02T03:54:57.453Z,1014.88
2023-05-02T03:55:57.480Z,1014.83
2023-05-02T03:56:57.505Z,1014.90
2023-05-02T03:57:57.535Z,1014.88
2023-05-02T03:58:57.558Z,1014.89
2023-05-02T03:59:57.699Z,1014.84
2023-05-02T04:00:57.612Z,1014.82
2023-05-02T04:01:57.664Z,1014.89
2023-05-02T04:02:57.711Z,1014.94
2023-05-02T04:03:57.788Z,1014.86
2023-05-02T04:04:57.747Z,1014.93
2023-05-02T04:05:57.751Z,1014.93
2023-05-02T04:06:57.773Z,1014.93
2023-05-02T04:07:57.800Z,1014.92
2023-05-02T04:08:57.838Z,1014.94
2023-05-02T04:09:57.981Z,1014.95
2023-05-02T04:10:57.880Z,1014.95
2023-05-02T04:11:57.906Z,1014.95
2023-05-02T04:12:57.939Z,1014.97
2023-05-02T04:13:57.965Z,1015.03
2023-05-02T04:14:57.988Z,1015.02
2023-05-02T04:15:58.018Z,1015.02
2023-05-02T04:16:58.094Z,1015.08
2023-05-02T04:17:58.080Z,1015.02
2023-05-02T04:18:58.094Z,1015.04
2023-05-02T04:19:58.809Z,1015.06
2023-05-02T04:20:58.166Z,1015.06
2023-05-02T04:21:58.176Z,1015.03
2023-05-02T04:22:58.202Z,1015.07
2023-05-02T04:23:58.236Z,1015.05
2023-05-02T04:24:58.255Z,1015.03
2023-05-02T04:25:58.284Z,1015.03
2023-05-02T04:26:58.307Z,1015.04
2023-05-02T04:27:58.345Z,1015.08
2023-05-02T04:28:58.360Z,1015.09
2023-05-02T04:29:58.608Z,1015.14
2023-05-02T04:30:58.502Z,1015.14
2023-05-02T04:31:58.440Z,1015.17
2023-05-02T04:32:58.521Z,1015.13
2023-05-02T04:33:58.503Z,1015.17
2023-05-02T04:34:58.520Z,1015.19
2023-05-02T04:35:58.546Z,1015.19
2023-05-02T04:36:58.593Z,1015.24
2023-05-02T04:37:58.599Z,1015.22
2023-05-02T04:38:58.627Z,1015.23
2023-05-02T04:39:58.923Z,1015.23
2023-05-02T04:40:58.676Z,1015.24
2023-05-02T04:41:58.705Z,1015.24
2023-05-02T04:42:58.746Z,1015.25
2023-05-02T04:43:58.761Z,1015.28
2023-05-02T04:44:58.785Z,1015.31
2023-05-02T04:45:59.024Z,1015.36
2023-05-02T04:46:58.845Z,1015.41
2023-05-02T04:47:58.895Z,1015.41
2023-05-02T04:48:58.901Z,1015.45
2023-05-02T04:49:59.125Z,1015.45
2023-05-02T04:50:58.948Z,1015.45
2023-05-02T04:51:58.978Z,1015.50
2023-05-02T04:52:59.019Z,1015.49
2023-05-02T04:53:59.023Z,1015.48
2023-05-02T04:54:59.059Z,1015.49
2023-05-02T04:55:59.101Z,1015.49
2023-05-02T04:56:59.107Z,1015.56
2023-05-02T04:57:59.133Z,1015.56
2023-05-02T04:58:59.164Z,1015.59
2023-05-02T04:59:59.334Z,1015.51
2023-05-02T05:00:59.222Z,1015.56
2023-05-02T05:01:59.291Z,1015.58
2023-05-02T05:03:01.435Z,1015.50
2023-05-02T05:03:59.474Z,1015.52
2023-05-02T05:04:59.334Z,1015.51
2023-05-02T05:05:59.375Z,1015.51
2023-05-02T05:06:59.514Z,1015.56
2023-05-02T05:07:59.404Z,1015.61
2023-05-02T05:08:59.449Z,1015.59
2023-05-02T05:09:59.723Z,1015.61
2023-05-02T05:10:59.485Z,1015.66
2023-05-02T05:11:59.512Z,1015.60
2023-05-02T05:12:59.538Z,1015.66
2023-05-02T05:13:59.565Z,1015.61
2023-05-02T05:14:59.591Z,1015.66
2023-05-02T05:15:59.669Z,1015.66
2023-05-02T05:16:59.644Z,1015.69
2023-05-02T05:17:59.729Z,1015.72
2023-05-02T05:18:59.703Z,1015.71
2023-05-02T05:19:59.924Z,1015.71
2023-05-02T05:20:59.765Z,1015.70
2023-05-02T05:21:59.780Z,1015.76
2023-05-02T05:22:59.810Z,1015.76
2023-05-02T05:23:59.945Z,1015.78
2023-05-02T05:25:00.001Z,1015.78
2023-05-02T05:25:59.888Z,1015.80
2023-05-02T05:27:00.042Z,1015.78
2023-05-02T05:27:59.988Z,1015.78
2023-05-02T05:28:59.964Z,1015.77
2023-05-02T05:30:00.341Z,1015.88
2023-05-02T05:31:00.059Z,1015.86
2023-05-02T05:32:00.261Z,1015.89
2023-05-02T05:33:00.112Z,1015.93
2023-05-02T05:34:00.248Z,1015.93
2023-05-02T05:35:00.168Z,1015.96
2023-05-02T05:36:00.162Z,1015.91
2023-05-02T05:37:00.184Z,1015.97
2023-05-02T05:38:00.206Z,1015.98
2023-05-02T05:39:00.236Z,1015.99
2023-05-02T05:40:00.885Z,1016.00
2023-05-02T05:41:00.309Z,1016.06
2023-05-02T05:42:00.315Z,1016.09
2023-05-02T05:43:00.348Z,1016.09
2023-05-02T05:44:00.371Z,1016.10
2023-05-02T05:45:00.396Z,1016.10
2023-05-02T05:46:00.423Z,1016.12
2023-05-02T05:47:00.496Z,1016.16
2023-05-02T05:48:00.517Z,1016.12
2023-05-02T05:49:00.504Z,1016.14
2023-05-02T05:50:01.132Z,1016.13
2023-05-02T05:51:00.559Z,1016.16
2023-05-02T05:52:00.583Z,1016.13
2023-05-02T05:53:00.618Z,1016.16
2023-05-02T05:54:00.638Z,1016.18
2023-05-02T05:55:00.665Z,1016.22
2023-05-02T05:56:00.692Z,1016.20
2023-05-02T05:57:00.737Z,1016.25
2023-05-02T05:58:00.746Z,1016.26
2023-05-02T05:59:00.785Z,1016.27
2023-05-02T06:00:01.048Z,1016.29
2023-05-02T06:01:00.829Z,1016.30
2023-05-02T06:02:00.954Z,1016.32
2023-05-02T06:03:00.975Z,1016.34
2023-05-02T06:04:01.108Z,1016.32
2023-05-02T06:05:00.967Z,1016.31
2023-05-02T06:06:01.034Z,1016.35
2023-05-02T06:07:00.990Z,1016.35
2023-05-02T06:08:01.015Z,1016.32
2023-05-02T06:09:01.091Z,1016.36
2023-05-02T06:10:01.412Z,1016.42
2023-05-02T06:11:01.102Z,1016.34
2023-05-02T06:12:01.122Z,1016.38
2023-05-02T06:13:01.189Z,1016.41
2023-05-02T06:14:01.175Z,1016.36
2023-05-02T06:15:01.225Z,1016.39
2023-05-02T06:16:01.293Z,1016.35
2023-05-02T06:17:01.277Z,1016.38
2023-05-02T06:18:01.307Z,1016.41
2023-05-02T06:19:01.325Z,1016.43
2023-05-02T06:20:01.667Z,1016.39
2023-05-02T06:21:01.370Z,1016.41
2023-05-02T06:22:01.391Z,1016.42
2023-05-02T06:23:01.418Z,1016.47
2023-05-02T06:24:01.457Z,1016.48
2023-05-02T06:25:01.477Z,1016.49
2023-05-02T06:26:01.530Z,1016.51
2023-05-02T06:27:01.537Z,1016.55
2023-05-02T06:28:01.556Z,1016.50
2023-05-02T06:29:01.597Z,1016.57
2023-05-02T06:30:02.130Z,1016.60
2023-05-02T06:31:01.812Z,1016.59
2023-05-02T06:32:01.819Z,1016.61
2023-05-02T06:33:01.717Z,1016.62
2023-05-02T06:34:01.710Z,1016.63
2023-05-02T06:35:01.748Z,1016.67
2023-05-02T06:36:02.300Z,1016.65
2023-05-02T06:37:01.793Z,1016.66
2023-05-02T06:38:01.822Z,1016.69
2023-05-02T06:39:01.847Z,1016.73
2023-05-02T06:40:14.909Z,1016.76
2023-05-02T06:41:01.906Z,1016.72
2023-05-02T06:42:01.933Z,1016.77
2023-05-02T06:43:01.960Z,1016.79
2023-05-02T06:44:01.982Z,1016.80
2023-05-02T06:45:02.032Z,1016.80
2023-05-02T06:46:02.043Z,1016.80
2023-05-02T06:47:02.119Z,1016.80
2023-05-02T06:48:02.155Z,1016.84
2023-05-02T06:49:02.116Z,1016.90
2023-05-02T06:50:02.442Z,1016.90
2023-05-02T06:51:02.194Z,1016.93
2023-05-02T06:52:02.207Z,1016.96
2023-05-02T06:53:02.225Z,1016.91
2023-05-02T06:54:02.263Z,1016.99
2023-05-02T06:55:02.282Z,1016.97
2023-05-02T06:56:02.314Z,1016.99
2023-05-02T06:57:02.352Z,1017.07
2023-05-02T06:58:02.402Z,1017.05
2023-05-02T06:59:02.395Z,1017.07
2023-05-02T07:00:02.743Z,1017.06
2023-05-02T07:01:02.531Z,1017.06
2023-05-02T07:02:05.129Z,1017.11
2023-05-02T07:03:02.538Z,1017.11
2023-05-02T07:04:02.627Z,1017.10
2023-05-02T07:05:02.599Z,1017.10
2023-05-02T07:06:02.785Z,1017.13
2023-05-02T07:07:02.604Z,1017.15
2023-05-02T07:08:02.642Z,1017.18
2023-05-02T07:09:02.654Z,1017.19
2023-05-02T07:10:03.016Z,1017.21
2023-05-02T07:11:02.857Z,1017.23
2023-05-02T07:12:05.341Z,1017.28
2023-05-02T07:13:02.757Z,1017.22
2023-05-02T07:14:02.792Z,1017.25
2023-05-02T07:15:02.814Z,1017.29
2023-05-02T07:16:02.920Z,1017.26
2023-05-02T07:17:03.025Z,1017.27
2023-05-02T07:18:02.917Z,1017.28
2023-05-02T07:19:02.926Z,1017.33
2023-05-02T07:20:03.321Z,1017.33
2023-05-02T07:21:02.989Z,1017.38
2023-05-02T07:22:03.003Z,1017.38
2023-05-02T07:23:03.033Z,1017.39
2023-05-02T07:24:03.052Z,1017.38
2023-05-02T07:25:03.084Z,1017.42
2023-05-02T07:26:05.611Z,1017.46
2023-05-02T07:27:03.142Z,1017.43
2023-05-02T07:28:03.163Z,1017.47
2023-05-02T07:29:03.187Z,1017.43
2023-05-02T07:30:03.565Z,1017.41
2023-05-02T07:31:03.248Z,1017.47
2023-05-02T07:32:03.339Z,1017.47
2023-05-02T07:33:03.342Z,1017.49
2023-05-02T07:34:03.334Z,1017.51
2023-05-02T07:35:03.362Z,1017.50
2023-05-02T07:36:03.381Z,1017.54
2023-05-02T07:37:03.403Z,1017.48
2023-05-02T07:38:03.431Z,1017.47
2023-05-02T07:39:03.459Z,1017.50
2023-05-02T07:40:03.865Z,1017.48
2023-05-02T07:41:03.511Z,1017.50
2023-05-02T07:42:03.541Z,1017.51
2023-05-02T07:43:03.587Z,1017.61
2023-05-02T07:44:03.609Z,1017.59
2023-05-02T07:45:03.622Z,1017.64
2023-05-02T07:46:03.697Z,1017.59
2023-05-02T07:47:03.676Z,1017.63
2023-05-02T07:48:03.766Z,1017.64
2023-05-02T07:49:03.751Z,1017.65
2023-05-02T07:50:04.002Z,1017.73
2023-05-02T07:51:03.784Z,1017.71
2023-05-02T07:52:03.810Z,1017.74
2023-05-02T07:53:03.843Z,1017.78
2023-05-02T07:54:03.863Z,1017.76
2023-05-02T07:55:03.901Z,1017.74
2023-05-02T07:56:03.947Z,1017.76
2023-05-02T07:57:03.946Z,1017.78
2023-05-02T07:58:04.004Z,1017.78
2023-05-02T07:59:05.613Z,1017.79
2023-05-02T08:00:04.262Z,1017.77
2023-05-02T08:01:04.120Z,1017.81
2023-05-02T08:02:04.078Z,1017.83
2023-05-02T08:03:04.191Z,1017.78
2023-05-02T08:04:04.437Z,1017.81
2023-05-02T08:05:04.235Z,1017.83
2023-05-02T08:06:04.246Z,1017.84
2023-05-02T08:07:04.215Z,1017.82
2023-05-02T08:08:04.245Z,1017.82
2023-05-02T08:09:04.273Z,1017.82
2023-05-02T08:10:04.506Z,1017.83
2023-05-02T08:11:04.345Z,1017.87
2023-05-02T08:12:04.347Z,1017.84
2023-05-02T08:13:04.397Z,1017.86
2023-05-02T08:14:04.408Z,1017.93
2023-05-02T08:15:04.434Z,1017.87
2023-05-02T08:16:04.555Z,1017.90
2023-05-02T08:17:04.509Z,1017.91
2023-05-02T08:18:04.552Z,1017.93
2023-05-02T08:19:04.540Z,1017.97
2023-05-02T08:20:04.559Z,1017.96
2023-05-02T08:21:04.613Z,1017.96
2023-05-02T08:22:04.616Z,1017.93
2023-05-02T08:23:04.645Z,1018.00
2023-05-02T08:24:04.674Z,1017.93
2023-05-02T08:25:04.700Z,1017.96
2023-05-02T08:26:04.732Z,1017.98
2023-05-02T08:27:04.754Z,1017.98
2023-05-02T08:28:04.787Z,1017.97
2023-05-02T08:29:04.809Z,1017.99
2023-05-02T08:30:05.033Z,1018.06
2023-05-02T08:31:04.875Z,1018.07
2023-05-02T08:32:05.036Z,1018.12
2023-05-02T08:33:05.101Z,1018.06
2023-05-02T08:34:04.949Z,1018.12
2023-05-02T08:35:04.976Z,1018.13
2023-05-02T08:36:04.996Z,1018.14
2023-05-02T08:37:05.047Z,1018.10
2023-05-02T08:38:05.051Z,1018.14
2023-05-02T08:39:05.091Z,1018.09
2023-05-02T08:40:05.145Z,1018.10
2023-05-02T08:41:05.133Z,1018.12
2023-05-02T08:42:05.157Z,1018.08
2023-05-02T08:43:05.188Z,1018.13
2023-05-02T08:44:05.217Z,1018.13
2023-05-02T08:45:05.240Z,1018.15
2023-05-02T08:46:05.262Z,1018.11
2023-05-02T08:47:05.317Z,1018.15
2023-05-02T08:48:05.363Z,1018.19
2023-05-02T08:49:05.349Z,1018.21
2023-05-02T08:50:05.372Z,1018.17
2023-05-02T08:51:05.408Z,1018.24
2023-05-02T08:52:05.428Z,1018.21
2023-05-02T08:53:05.509Z,1018.20
2023-05-02T08:54:05.494Z,1018.29
2023-05-02T08:55:05.515Z,1018.20
2023-05-02T08:56:05.559Z,1018.19
2023-05-02T08:57:05.566Z,1018.22
2023-05-02T08:58:05.601Z,1018.26
2023-05-02T08:59:05.616Z,1018.22
2023-05-02T09:00:05.649Z,1018.21
2023-05-02T09:01:05.779Z,1018.25
2023-05-02T09:02:05.698Z,1018.22
2023-05-02T09:03:05.811Z,1018.28
2023-05-02T09:04:05.800Z,1018.24
2023-05-02T09:05:05.782Z,1018.25
2023-05-02T09:06:05.985Z,1018.26
2023-05-02T09:07:05.837Z,1018.29
2023-05-02T09:08:05.864Z,1018.30
2023-05-02T09:09:05.913Z,1018.34
2023-05-02T09:10:05.921Z,1018.31
2023-05-02T09:11:06.108Z,1018.40
2023-05-02T09:12:05.985Z,1018.38
2023-05-02T09:13:06.009Z,1018.40
2023-05-02T09:14:06.031Z,1018.42
2023-05-02T09:15:06.058Z,1018.43
2023-05-02T09:16:06.164Z,1018.45
2023-05-02T09:17:06.220Z,1018.48
2023-05-02T09:18:06.164Z,1018.49
2023-05-02T09:19:06.171Z,1018.53
2023-05-02T09:20:06.447Z,1018.50
2023-05-02T09:21:06.221Z,1018.54
2023-05-02T09:22:06.253Z,1018.57
2023-05-02T09:23:06.286Z,1018.65
2023-05-02T09:24:06.309Z,1018.56
2023-05-02T09:25:06.516Z,1018.62
2023-05-02T09:26:06.369Z,1018.68
2023-05-02T09:27:06.388Z,1018.65
2023-05-02T09:28:06.424Z,1018.67
2023-05-02T09:29:06.450Z,1018.76
2023-05-02T09:30:06.470Z,1018.76
2023-05-02T09:31:06.545Z,1018.78
2023-05-02T09:32:06.604Z,1018.76
2023-05-02T09:33:06.579Z,1018.84
2023-05-02T09:34:06.579Z,1018.85
2023-05-02T09:35:06.668Z,1018.89
2023-05-02T09:36:06.635Z,1018.92
2023-05-02T09:37:06.661Z,1018.91
2023-05-02T09:38:06.695Z,1018.90
2023-05-02T09:39:06.716Z,1018.96
2023-05-02T09:40:06.745Z,1018.96
2023-05-02T09:41:06.839Z,1018.89
2023-05-02T09:42:06.800Z,1018.94
2023-05-02T09:43:06.829Z,1018.95
2023-05-02T09:44:06.862Z,1018.91
2023-05-02T09:45:06.882Z,1018.94
2023-05-02T09:46:06.949Z,1018.93
2023-05-02T09:47:07.108Z,1018.99
2023-05-02T09:48:07.021Z,1018.97
2023-05-02T09:49:06.983Z,1019.00
2023-05-02T09:50:07.017Z,1018.99
2023-05-02T09:51:07.044Z,1019.08
2023-05-02T09:52:07.070Z,1019.08
2023-05-02T09:53:07.110Z,1019.10
2023-05-02T09:54:07.126Z,1019.10
2023-05-02T09:55:07.357Z,1019.10
2023-05-02T09:56:07.177Z,1019.12
2023-05-02T09:57:07.389Z,1019.18
2023-05-02T09:58:07.233Z,1019.16
2023-05-02T09:59:07.257Z,1019.21
2023-05-02T10:00:07.287Z,1019.17
2023-05-02T10:01:07.339Z,1019.27
2023-05-02T10:02:07.343Z,1019.23
2023-05-02T10:03:07.392Z,1019.23
2023-05-02T10:04:07.418Z,1019.23
2023-05-02T10:05:07.419Z,1019.19
2023-05-02T10:06:07.492Z,1019.21
2023-05-02T10:07:07.487Z,1019.24
2023-05-02T10:08:07.511Z,1019.24
2023-05-02T10:09:07.704Z,1019.20
2023-05-02T10:10:07.571Z,1019.18
2023-05-02T10:11:07.585Z,1019.21
2023-05-02T10:12:07.616Z,1019.20
2023-05-02T10:13:07.665Z,1019.22
2023-05-02T10:14:07.670Z,1019.19
2023-05-02T10:15:07.694Z,1019.20
2023-05-02T10:16:07.780Z,1019.21
2023-05-02T10:17:07.752Z,1019.17
2023-05-02T10:18:07.826Z,1019.19
2023-05-02T10:19:11.639Z,1019.23
2023-05-02T10:20:07.960Z,1019.21
2023-05-02T10:21:07.860Z,1019.22
2023-05-02T10:22:07.895Z,1019.26
2023-05-02T10:23:07.915Z,1019.22
2023-05-02T10:25:05.548Z,1019.21
2023-05-02T10:26:05.557Z,1019.20
2023-05-02T10:27:05.620Z,1019.28
2023-05-02T10:28:05.611Z,1019.29
2023-05-02T10:29:05.658Z,1019.34
2023-05-02T10:30:05.665Z,1019.29
2023-05-02T10:31:05.717Z,1019.33
2023-05-02T10:32:05.878Z,1019.28
2023-05-02T10:34:33.404Z,1019.34
2023-05-02T10:35:33.437Z,1019.33
2023-05-02T10:36:33.462Z,1019.26
2023-05-02T10:37:33.498Z,1019.28
2023-05-02T10:38:33.521Z,1019.21
2023-05-02T10:39:33.552Z,1019.24
2023-05-02T10:41:16.115Z,1019.28
2023-05-02T10:42:16.152Z,1019.30
2023-05-02T10:43:58.727Z,1019.25
2023-05-02T10:44:59.003Z,1019.21
2023-05-02T10:45:58.784Z,1019.19
2023-05-02T10:46:58.878Z,1019.30
2023-05-02T10:47:58.866Z,1019.22
2023-05-02T10:48:58.870Z,1019.22
2023-05-02T10:49:58.924Z,1019.22
2023-05-02T10:50:58.924Z,1019.20
2023-05-02T10:51:58.950Z,1019.20
2023-05-02T10:52:58.984Z,1019.20
2023-05-02T10:53:59.026Z,1019.16
2023-05-02T10:54:59.153Z,1019.14
2023-05-02T10:55:59.068Z,1019.16
2023-05-02T10:56:59.099Z,1019.15
2023-05-02T10:57:59.291Z,1019.21
2023-05-02T10:58:59.166Z,1019.23
2023-05-02T10:59:59.183Z,1019.24
2023-05-02T11:00:59.319Z,1019.23
2023-05-02T11:01:59.874Z,1019.24
2023-05-02T11:02:59.443Z,1019.22
2023-05-02T11:03:59.325Z,1019.24
2023-05-02T11:05:59.400Z,1019.22
2023-05-02T11:06:59.399Z,1019.28
2023-05-02T11:07:59.416Z,1019.22
2023-05-02T11:08:59.454Z,1019.22
2023-05-02T11:09:59.472Z,1019.21
2023-05-02T11:10:59.647Z,1019.21
2023-05-02T11:11:59.528Z,1019.25
2023-05-02T11:12:59.554Z,1019.21
2023-05-02T11:13:59.588Z,1019.24
2023-05-02T11:14:59.804Z,1019.23
2023-05-02T11:15:59.797Z,1019.29
2023-05-02T11:16:59.751Z,1019.35
2023-05-02T11:17:59.740Z,1019.25
2023-05-02T11:18:59.725Z,1019.30
2023-05-02T11:19:59.767Z,1019.27
2023-05-02T11:21:00.165Z,1019.25
2023-05-02T11:21:59.821Z,1019.26
2023-05-02T11:23:02.667Z,1019.24
2023-05-02T11:23:59.879Z,1019.24
2023-05-02T11:25:00.163Z,1019.22
2023-05-02T11:25:59.929Z,1019.26
2023-05-02T11:26:59.967Z,1019.26
2023-05-02T11:28:00.013Z,1019.25
2023-05-02T11:30:00.100Z,1019.27
2023-05-02T11:31:00.135Z,1019.24
2023-05-02T11:32:00.140Z,1019.22
2023-05-02T11:33:00.182Z,1019.20
2023-05-02T11:34:00.174Z,1019.17
2023-05-02T11:35:00.724Z,1019.14
2023-05-02T11:36:00.220Z,1019.26
2023-05-02T11:37:00.589Z,1019.31
2023-05-02T11:38:00.275Z,1019.15
2023-05-02T11:39:00.306Z,1019.20
2023-05-02T11:40:00.350Z,1019.21
2023-05-02T11:41:00.367Z,1019.22
2023-05-02T11:42:00.392Z,1019.22
2023-05-02T11:44:00.669Z,1019.15
2023-05-02T11:45:00.845Z,1019.22
2023-05-02T11:46:00.679Z,1019.26
2023-05-02T11:47:00.742Z,1019.24
2023-05-02T11:48:00.582Z,1019.18
2023-05-02T11:49:00.641Z,1019.22
2023-05-02T11:51:00.676Z,1019.37
2023-05-02T11:52:00.697Z,1019.37
2023-05-02T11:53:00.720Z,1019.38
2023-05-02T11:54:01.072Z,1019.48
2023-05-02T11:55:00.993Z,1019.48
2023-05-02T11:56:00.806Z,1019.29
2023-05-02T11:57:00.854Z,1019.33
2023-05-02T11:58:00.866Z,1019.38
2023-05-02T11:59:00.999Z,1019.37
2023-05-02T12:00:01.136Z,1019.32
2023-05-02T12:02:01.000Z,1019.25
2023-05-02T12:03:01.081Z,1019.27
2023-05-02T12:04:01.230Z,1019.32
2023-05-02T12:05:01.270Z,1019.29
2023-05-02T12:06:01.244Z,1019.26
2023-05-02T12:07:01.284Z,1019.36
2023-05-02T12:08:01.216Z,1019.33
2023-05-02T12:09:01.408Z,1019.33
2023-05-02T12:10:01.425Z,1019.31
2023-05-02T12:11:01.265Z,1019.28
2023-05-02T12:12:01.284Z,1019.27
2023-05-02T12:13:01.335Z,1019.33
2023-05-02T12:14:01.357Z,1019.28
2023-05-02T12:15:01.805Z,1019.33